createdAt,value
2022-08-17T00:00:04.653Z,19.85
2022-08-17T00:01:04.659Z,19.91
2022-08-17T00:02:05.015Z,19.94
2022-08-17T00:03:04.523Z,19.92
2022-08-17T00:04:09.305Z,20.00
2022-08-17T00:05:04.405Z,19.91
2022-08-17T00:06:04.363Z,19.91
2022-08-17T00:07:04.307Z,19.91
2022-08-17T00:08:04.260Z,19.89
2022-08-17T00:09:04.224Z,19.96
2022-08-17T00:10:04.164Z,19.91
2022-08-17T00:11:04.137Z,19.95
2022-08-17T00:12:41.081Z,19.99
2022-08-17T00:13:04.014Z,19.91
2022-08-17T00:14:03.965Z,19.89
2022-08-17T00:15:03.917Z,19.91
2022-08-17T00:16:03.884Z,19.88
2022-08-17T00:17:03.907Z,19.86
2022-08-17T00:18:03.790Z,19.85
2022-08-17T00:19:08.238Z,19.86
2022-08-17T00:20:03.676Z,19.88
2022-08-17T00:21:03.635Z,19.81
2022-08-17T00:22:33.778Z,19.86
2022-08-17T00:23:03.527Z,19.88
2022-08-17T00:24:03.494Z,19.84
2022-08-17T00:25:03.434Z,19.91
2022-08-17T00:26:03.393Z,19.85
2022-08-17T00:27:03.348Z,19.91
2022-08-17T00:28:03.286Z,19.88
2022-08-17T00:29:03.241Z,19.84
2022-08-17T00:30:03.199Z,19.85
2022-08-17T00:31:03.147Z,19.81
2022-08-17T00:33:12.527Z,19.85
2022-08-17T00:33:14.483Z,19.91
2022-08-17T00:34:02.994Z,19.82
2022-08-17T00:35:02.968Z,19.79
2022-08-17T00:36:02.897Z,19.76
2022-08-17T00:37:02.862Z,19.88
2022-08-17T00:38:02.814Z,19.76
2022-08-17T00:39:02.754Z,19.77
2022-08-17T00:40:02.741Z,19.63
2022-08-17T00:41:02.671Z,19.55
2022-08-17T00:42:02.627Z,19.52
2022-08-17T00:43:02.555Z,19.49
2022-08-17T00:44:02.510Z,19.40
2022-08-17T00:45:02.548Z,19.33
2022-08-17T00:46:02.409Z,19.29
2022-08-17T00:47:02.382Z,19.31
2022-08-17T00:48:02.311Z,19.33
2022-08-17T00:49:02.269Z,19.51
2022-08-17T00:50:02.213Z,19.51
2022-08-17T00:51:02.164Z,19.58
2022-08-17T00:52:02.132Z,19.56
2022-08-17T00:53:02.070Z,19.63
2022-08-17T00:54:02.019Z,19.59
2022-08-17T00:55:01.975Z,19.66
2022-08-17T00:56:01.926Z,19.54
2022-08-17T00:57:01.890Z,19.58
2022-08-17T00:58:01.829Z,19.70
2022-08-17T00:59:01.777Z,19.63
2022-08-17T01:00:03.343Z,19.73
2022-08-17T01:01:01.784Z,19.69
2022-08-17T01:02:01.643Z,19.71
2022-08-17T01:03:01.579Z,19.67
2022-08-17T01:04:01.554Z,19.67
2022-08-17T01:05:01.503Z,19.71
2022-08-17T01:06:01.435Z,19.71
2022-08-17T01:07:01.393Z,19.76
2022-08-17T01:08:01.336Z,19.73
2022-08-17T01:09:01.290Z,19.77
2022-08-17T01:10:01.238Z,19.73
2022-08-17T01:11:01.915Z,19.71
2022-08-17T01:12:01.141Z,19.71
2022-08-17T01:13:01.094Z,19.79
2022-08-17T01:14:01.054Z,19.82
2022-08-17T01:15:01.000Z,19.77
2022-08-17T01:16:00.968Z,19.81
2022-08-17T01:17:00.899Z,19.74
2022-08-17T01:18:00.848Z,19.77
2022-08-17T01:19:00.801Z,19.91
2022-08-17T01:20:00.762Z,19.86
2022-08-17T01:21:00.716Z,19.89
2022-08-17T01:22:00.668Z,19.92
2022-08-17T01:23:00.604Z,19.85
2022-08-17T01:24:00.555Z,19.85
2022-08-17T01:25:00.505Z,19.79
2022-08-17T01:26:00.460Z,19.81
2022-08-17T01:27:00.430Z,19.79
2022-08-17T01:28:00.367Z,19.74
2022-08-17T01:29:00.312Z,19.74
2022-08-17T01:30:00.263Z,19.70
2022-08-17T01:31:00.221Z,19.70
2022-08-17T01:32:00.179Z,19.63
2022-08-17T01:33:00.137Z,19.67
2022-08-17T01:34:00.070Z,19.66
2022-08-17T01:35:00.017Z,19.69
2022-08-17T01:35:59.976Z,19.59
2022-08-17T01:36:59.936Z,19.71
2022-08-17T01:37:59.889Z,19.74
2022-08-17T01:38:59.830Z,19.70
2022-08-17T01:39:59.852Z,19.73
2022-08-17T01:40:59.728Z,19.74
2022-08-17T01:41:59.678Z,19.85
2022-08-17T01:42:59.645Z,19.92
2022-08-17T01:43:59.578Z,19.82
2022-08-17T01:44:59.545Z,19.88
2022-08-17T01:46:03.258Z,19.92
2022-08-17T01:46:59.434Z,19.99
2022-08-17T01:47:59.389Z,20.14
2022-08-17T01:48:59.360Z,20.14
2022-08-17T01:49:59.299Z,20.09
2022-08-17T01:50:59.264Z,20.21
2022-08-17T01:51:59.191Z,20.13
2022-08-17T01:52:59.141Z,20.02
2022-08-17T01:53:59.089Z,19.99
2022-08-17T01:54:59.058Z,19.92
2022-08-17T01:55:58.994Z,19.91
2022-08-17T01:56:58.958Z,19.79
2022-08-17T01:57:58.898Z,19.79
2022-08-17T01:58:58.846Z,19.81
2022-08-17T01:59:58.817Z,19.76
2022-08-17T02:01:00.611Z,19.77
2022-08-17T02:01:58.811Z,19.74
2022-08-17T02:02:58.651Z,19.70
2022-08-17T02:04:00.849Z,19.70
2022-08-17T02:04:58.553Z,19.76
2022-08-17T02:05:58.522Z,19.76
2022-08-17T02:06:58.459Z,19.70
2022-08-17T02:08:00.258Z,19.74
2022-08-17T02:09:02.954Z,19.73
2022-08-17T02:09:58.325Z,19.76
2022-08-17T02:10:58.259Z,19.81
2022-08-17T02:11:58.226Z,19.73
2022-08-17T02:12:58.162Z,19.74
2022-08-17T02:14:02.741Z,19.71
2022-08-17T02:14:58.080Z,19.79
2022-08-17T02:15:58.022Z,19.70
2022-08-17T02:16:57.988Z,19.73
2022-08-17T02:17:57.920Z,19.59
2022-08-17T02:18:57.873Z,19.58
2022-08-17T02:19:57.822Z,19.62
2022-08-17T02:20:57.795Z,19.54
2022-08-17T02:21:57.725Z,19.52
2022-08-17T02:22:57.698Z,19.52
2022-08-17T02:23:57.630Z,19.55
2022-08-17T02:25:01.219Z,19.54
2022-08-17T02:25:57.530Z,19.48
2022-08-17T02:26:57.486Z,19.40
2022-08-17T02:27:57.430Z,19.41
2022-08-17T02:28:57.481Z,19.30
2022-08-17T02:29:57.333Z,19.36
2022-08-17T02:31:01.946Z,19.34
2022-08-17T02:31:57.238Z,19.29
2022-08-17T02:32:57.203Z,19.34
2022-08-17T02:34:04.005Z,19.27
2022-08-17T02:34:57.116Z,19.33
2022-08-17T02:35:57.042Z,19.27
2022-08-17T02:36:56.994Z,19.29
2022-08-17T02:37:56.956Z,19.26
2022-08-17T02:38:56.921Z,19.27
2022-08-17T02:39:57.087Z,19.30
2022-08-17T02:40:56.810Z,19.18
2022-08-17T02:41:56.749Z,19.14
2022-08-17T02:42:56.714Z,19.15
2022-08-17T02:43:56.648Z,19.11
2022-08-17T02:44:56.602Z,19.11
2022-08-17T02:45:56.556Z,19.11
2022-08-17T02:46:56.520Z,19.08
2022-08-17T02:47:56.455Z,19.08
2022-08-17T02:48:56.414Z,18.98
2022-08-17T02:49:56.383Z,19.09
2022-08-17T02:50:56.312Z,18.99
2022-08-17T02:51:56.277Z,18.96
2022-08-17T02:53:02.498Z,18.99
2022-08-17T02:54:35.731Z,18.95
2022-08-17T02:54:56.142Z,19.00
2022-08-17T02:55:56.065Z,18.96
2022-08-17T02:56:56.024Z,18.93
2022-08-17T02:57:55.976Z,18.99
2022-08-17T02:58:55.916Z,18.99
2022-08-17T02:59:56.713Z,19.00
2022-08-17T03:00:55.845Z,19.14
2022-08-17T03:01:55.914Z,19.07
2022-08-17T03:02:55.724Z,19.18
2022-08-17T03:03:55.674Z,19.24
2022-08-17T03:04:55.621Z,19.27
2022-08-17T03:05:55.576Z,19.27
2022-08-17T03:06:55.551Z,19.26
2022-08-17T03:07:55.473Z,19.33
2022-08-17T03:08:55.446Z,19.36
2022-08-17T03:09:55.382Z,19.37
2022-08-17T03:10:55.358Z,19.40
2022-08-17T03:11:56.033Z,19.33
2022-08-17T03:12:55.239Z,19.34
2022-08-17T03:13:55.184Z,19.34
2022-08-17T03:14:55.133Z,19.37
2022-08-17T03:15:55.108Z,19.34
2022-08-17T03:16:55.050Z,19.34
2022-08-17T03:17:54.985Z,19.33
2022-08-17T03:18:54.943Z,19.29
2022-08-17T03:19:54.902Z,19.27
2022-08-17T03:20:54.848Z,19.31
2022-08-17T03:21:55.564Z,19.16
2022-08-17T03:22:55.185Z,19.33
2022-08-17T03:23:54.824Z,19.29
2022-08-17T03:24:54.650Z,19.26
2022-08-17T03:25:54.602Z,19.26
2022-08-17T03:26:54.546Z,19.26
2022-08-17T03:27:54.511Z,19.27
2022-08-17T03:28:54.446Z,19.21
2022-08-17T03:29:54.407Z,19.22
2022-08-17T03:30:54.368Z,19.26
2022-08-17T03:31:54.302Z,19.21
2022-08-17T03:32:54.277Z,19.15
2022-08-17T03:33:54.217Z,19.24
2022-08-17T03:34:54.157Z,19.08
2022-08-17T03:35:54.139Z,18.99
2022-08-17T03:36:54.075Z,18.98
2022-08-17T03:38:00.915Z,18.95
2022-08-17T03:38:53.958Z,18.95
2022-08-17T03:39:53.934Z,18.83
2022-08-17T03:40:57.442Z,18.73
2022-08-17T03:41:53.835Z,18.71
2022-08-17T03:42:53.765Z,18.68
2022-08-17T03:43:53.714Z,18.65
2022-08-17T03:44:53.666Z,18.59
2022-08-17T03:45:53.622Z,18.66
2022-08-17T03:46:53.581Z,18.65
2022-08-17T03:47:53.518Z,18.70
2022-08-17T03:48:53.471Z,18.65
2022-08-17T03:49:53.421Z,18.63
2022-08-17T03:50:53.370Z,18.60
2022-08-17T03:51:53.337Z,18.65
2022-08-17T03:52:53.386Z,18.66
2022-08-17T03:53:53.234Z,18.60
2022-08-17T03:54:53.193Z,18.66
2022-08-17T03:55:53.124Z,18.70
2022-08-17T03:56:53.081Z,18.81
2022-08-17T03:57:53.030Z,18.74
2022-08-17T03:58:52.980Z,18.74
2022-08-17T03:59:52.945Z,18.70
2022-08-17T04:00:52.883Z,18.66
2022-08-17T04:01:53.152Z,18.75
2022-08-17T04:02:52.795Z,18.73
2022-08-17T04:03:52.738Z,18.74
2022-08-17T04:04:52.745Z,18.71
2022-08-17T04:05:52.634Z,18.80
2022-08-17T04:06:52.584Z,18.78
2022-08-17T04:07:52.551Z,18.81
2022-08-17T04:08:52.485Z,18.84
2022-08-17T04:09:52.439Z,18.75
2022-08-17T04:10:52.385Z,18.75
2022-08-17T04:11:52.351Z,18.75
2022-08-17T04:12:52.541Z,18.78
2022-08-17T04:13:52.242Z,18.75
2022-08-17T04:14:54.667Z,18.59
2022-08-17T04:15:52.139Z,18.63
2022-08-17T04:16:52.092Z,18.63
2022-08-17T04:17:52.060Z,18.52
2022-08-17T04:18:51.993Z,18.65
2022-08-17T04:19:51.957Z,18.63
2022-08-17T04:20:51.898Z,18.63
2022-08-17T04:21:51.864Z,18.62
2022-08-17T04:22:51.859Z,18.63
2022-08-17T04:23:51.748Z,18.75
2022-08-17T04:24:51.715Z,18.75
2022-08-17T04:25:51.730Z,18.66
2022-08-17T04:26:52.801Z,18.62
2022-08-17T04:27:51.566Z,18.59
2022-08-17T04:28:51.500Z,18.60
2022-08-17T04:29:54.615Z,18.66
2022-08-17T04:30:51.403Z,18.58
2022-08-17T04:31:51.352Z,18.56
2022-08-17T04:33:04.895Z,18.50
2022-08-17T04:33:51.270Z,18.60
2022-08-17T04:34:51.207Z,18.58
2022-08-17T04:35:51.162Z,18.63
2022-08-17T04:36:51.109Z,18.63
2022-08-17T04:37:51.074Z,18.65
2022-08-17T04:38:51.011Z,18.68
2022-08-17T04:39:51.008Z,18.74
2022-08-17T04:40:50.910Z,18.73
2022-08-17T04:41:50.858Z,18.74
2022-08-17T04:42:51.004Z,18.74
2022-08-17T04:43:50.764Z,18.81
2022-08-17T04:44:50.711Z,18.90
2022-08-17T04:45:55.058Z,18.98
2022-08-17T04:46:50.649Z,18.99
2022-08-17T04:47:50.565Z,18.96
2022-08-17T04:48:50.534Z,18.98
2022-08-17T04:49:59.196Z,19.07
2022-08-17T04:50:50.430Z,19.07
2022-08-17T04:51:54.971Z,19.04
2022-08-17T04:52:50.320Z,18.98
2022-08-17T04:53:54.251Z,18.98
2022-08-17T04:54:50.235Z,19.04
2022-08-17T04:55:50.170Z,18.98
2022-08-17T04:56:50.122Z,18.96
2022-08-17T04:57:50.071Z,18.96
2022-08-17T04:58:50.231Z,19.00
2022-08-17T04:59:49.975Z,18.98
2022-08-17T05:00:50.012Z,18.99
2022-08-17T05:01:49.877Z,19.11
2022-08-17T05:02:50.742Z,19.14
2022-08-17T05:03:49.775Z,19.19
2022-08-17T05:04:49.730Z,19.22
2022-08-17T05:05:50.030Z,19.30
2022-08-17T05:06:49.644Z,19.31
2022-08-17T05:07:49.598Z,19.40
2022-08-17T05:08:49.537Z,19.40
2022-08-17T05:09:49.480Z,19.45
2022-08-17T05:10:49.454Z,19.47
2022-08-17T05:11:49.383Z,19.51
2022-08-17T05:12:49.493Z,19.52
2022-08-17T05:13:49.286Z,19.45
2022-08-17T05:14:49.238Z,19.58
2022-08-17T05:15:49.192Z,19.58
2022-08-17T05:16:49.154Z,19.54
2022-08-17T05:17:49.087Z,19.64
2022-08-17T05:18:49.055Z,19.56
2022-08-17T05:19:51.972Z,19.62
2022-08-17T05:20:48.941Z,19.66
2022-08-17T05:21:48.894Z,19.69
2022-08-17T05:22:48.878Z,19.74
2022-08-17T05:23:50.310Z,19.77
2022-08-17T05:24:53.586Z,19.76
2022-08-17T05:25:48.697Z,19.73
2022-08-17T05:26:48.663Z,19.71
2022-08-17T05:27:48.597Z,19.81
2022-08-17T05:28:48.569Z,19.79
2022-08-17T05:29:48.501Z,19.91
2022-08-17T05:30:48.655Z,19.77
2022-08-17T05:31:48.404Z,19.86
2022-08-17T05:32:48.483Z,19.86
2022-08-17T05:33:48.319Z,19.88
2022-08-17T05:34:48.257Z,19.85
2022-08-17T05:35:48.211Z,19.91
2022-08-17T05:36:48.159Z,19.89
2022-08-17T05:37:48.159Z,20.02
2022-08-17T05:38:48.067Z,19.96
2022-08-17T05:39:48.034Z,19.95
2022-08-17T05:40:47.965Z,20.13
2022-08-17T05:41:47.930Z,20.02
2022-08-17T05:42:47.883Z,20.07
2022-08-17T05:43:47.832Z,20.11
2022-08-17T05:44:47.770Z,20.24
2022-08-17T05:45:55.291Z,20.25
2022-08-17T05:46:47.668Z,20.22
2022-08-17T05:47:47.639Z,20.31
2022-08-17T05:48:47.586Z,20.24
2022-08-17T05:49:49.086Z,20.29
2022-08-17T05:50:47.474Z,20.34
2022-08-17T05:51:47.427Z,20.39
2022-08-17T05:52:47.381Z,20.32
2022-08-17T05:53:47.358Z,20.28
2022-08-17T05:54:47.357Z,20.39
2022-08-17T05:55:47.235Z,20.31
2022-08-17T05:56:47.188Z,20.34
2022-08-17T05:57:53.355Z,20.34
2022-08-17T05:58:47.086Z,20.36
2022-08-17T05:59:47.054Z,20.32
2022-08-17T06:00:47.063Z,20.39
2022-08-17T06:01:46.958Z,20.36
2022-08-17T06:02:47.997Z,20.32
2022-08-17T06:03:46.845Z,20.36
2022-08-17T06:04:46.794Z,20.36
2022-08-17T06:05:46.767Z,20.21
2022-08-17T06:06:46.699Z,20.29
2022-08-17T06:07:46.649Z,20.25
2022-08-17T06:08:46.613Z,20.26
2022-08-17T06:09:46.553Z,20.24
2022-08-17T06:10:46.524Z,20.26
2022-08-17T06:11:46.457Z,20.25
2022-08-17T06:12:46.495Z,20.26
2022-08-17T06:13:46.363Z,20.22
2022-08-17T06:14:46.310Z,20.36
2022-08-17T06:15:46.265Z,20.25
2022-08-17T06:16:46.214Z,20.28
2022-08-17T06:17:46.165Z,20.28
2022-08-17T06:18:46.132Z,20.32
2022-08-17T06:19:46.082Z,20.40
2022-08-17T06:20:46.020Z,20.44
2022-08-17T06:21:45.972Z,20.41
2022-08-17T06:22:45.922Z,20.47
2022-08-17T06:23:45.890Z,20.62
2022-08-17T06:24:45.854Z,20.60
2022-08-17T06:25:45.777Z,20.58
2022-08-17T06:26:45.728Z,20.66
2022-08-17T06:27:45.682Z,20.70
2022-08-17T06:28:45.929Z,20.74
2022-08-17T06:29:45.708Z,20.72
2022-08-17T06:30:59.790Z,20.90
2022-08-17T06:31:45.505Z,20.81
2022-08-17T06:32:45.440Z,20.84
2022-08-17T06:33:45.396Z,20.92
2022-08-17T06:34:45.343Z,20.95
2022-08-17T06:35:45.297Z,20.96
2022-08-17T06:36:45.287Z,20.97
2022-08-17T06:37:45.197Z,21.02
2022-08-17T06:38:45.165Z,21.06
2022-08-17T06:39:45.134Z,21.09
2022-08-17T06:40:45.067Z,21.09
2022-08-17T06:41:45.007Z,21.25
2022-08-17T06:43:06.179Z,21.25
2022-08-17T06:43:47.895Z,21.36
2022-08-17T06:44:51.314Z,21.36
2022-08-17T06:45:44.816Z,21.37
2022-08-17T06:46:44.765Z,21.39
2022-08-17T06:47:44.720Z,21.42
2022-08-17T06:48:44.672Z,21.52
2022-08-17T06:49:44.622Z,21.57
2022-08-17T06:50:44.591Z,21.66
2022-08-17T06:51:44.525Z,21.66
2022-08-17T06:52:47.098Z,21.72
2022-08-17T06:53:44.428Z,21.80
2022-08-17T06:54:44.393Z,21.85
2022-08-17T06:55:44.352Z,21.95
2022-08-17T06:56:54.252Z,22.04
2022-08-17T06:57:44.238Z,22.07
2022-08-17T06:58:44.191Z,22.20
2022-08-17T06:59:54.370Z,22.25
2022-08-17T07:00:44.144Z,22.38
2022-08-17T07:01:44.047Z,22.44
2022-08-17T07:02:52.396Z,22.57
2022-08-17T07:03:43.950Z,22.68
2022-08-17T07:04:43.930Z,22.88
2022-08-17T07:05:43.856Z,23.06
2022-08-17T07:06:43.812Z,23.20
2022-08-17T07:07:43.763Z,23.54
2022-08-17T07:08:43.718Z,23.84
2022-08-17T07:09:43.698Z,24.01
2022-08-17T07:10:43.622Z,24.30
2022-08-17T07:11:43.594Z,24.48
2022-08-17T07:12:43.617Z,24.73
2022-08-17T07:13:43.486Z,24.89
2022-08-17T07:14:43.432Z,25.08
2022-08-17T07:15:43.404Z,25.28
2022-08-17T07:16:43.342Z,25.33
2022-08-17T07:17:57.735Z,25.41
2022-08-17T07:18:43.264Z,25.53
2022-08-17T07:19:43.251Z,25.46
2022-08-17T07:20:43.171Z,25.60
2022-08-17T07:21:43.111Z,25.70
2022-08-17T07:22:57.455Z,25.83
2022-08-17T07:23:43.018Z,25.88
2022-08-17T07:24:42.983Z,25.93
2022-08-17T07:25:42.927Z,26.05
2022-08-17T07:26:42.885Z,26.05
2022-08-17T07:27:42.986Z,26.16
2022-08-17T07:28:42.801Z,26.25
2022-08-17T07:29:42.742Z,26.21
2022-08-17T07:30:46.809Z,26.26
2022-08-17T07:31:42.651Z,26.26
2022-08-17T07:32:42.619Z,26.37
2022-08-17T07:33:42.566Z,26.38
2022-08-17T07:34:42.513Z,26.45
2022-08-17T07:35:44.026Z,26.48
2022-08-17T07:36:42.443Z,26.58
2022-08-17T07:37:42.431Z,26.56
2022-08-17T07:38:42.337Z,26.70
2022-08-17T07:39:59.751Z,26.62
2022-08-17T07:40:42.338Z,26.71
2022-08-17T07:41:53.116Z,26.68
2022-08-17T07:42:46.528Z,26.85
2022-08-17T07:43:42.127Z,26.89
2022-08-17T07:44:42.063Z,26.97
2022-08-17T07:45:42.018Z,26.99
2022-08-17T07:46:41.975Z,27.00
2022-08-17T07:47:41.943Z,27.08
2022-08-17T07:48:41.882Z,26.99
2022-08-17T07:49:41.838Z,26.97
2022-08-17T07:50:41.794Z,27.14
2022-08-17T07:51:41.765Z,27.17
2022-08-17T07:52:51.439Z,27.14
2022-08-17T07:53:41.659Z,27.03
2022-08-17T07:54:41.629Z,27.11
2022-08-17T07:55:41.574Z,27.22
2022-08-17T07:56:41.542Z,27.15
2022-08-17T07:57:41.482Z,27.17
2022-08-17T07:58:41.438Z,27.17
2022-08-17T07:59:43.177Z,27.14
2022-08-17T08:00:41.353Z,27.18
2022-08-17T08:01:41.985Z,27.22
2022-08-17T08:02:41.404Z,27.37
2022-08-17T08:03:41.213Z,27.42
2022-08-17T08:05:50.517Z,27.54
2022-08-17T08:06:41.086Z,27.67
2022-08-17T08:07:41.041Z,27.87
2022-08-17T08:08:40.996Z,28.01
2022-08-17T08:09:40.949Z,28.02
2022-08-17T08:10:42.529Z,28.11
2022-08-17T08:11:44.225Z,27.90
2022-08-17T08:12:40.833Z,27.87
2022-08-17T08:13:40.773Z,27.87
2022-08-17T08:14:40.732Z,27.93
2022-08-17T08:15:40.688Z,28.02
2022-08-17T08:16:40.646Z,28.04
2022-08-17T08:17:40.613Z,28.22
2022-08-17T08:18:54.005Z,27.95
2022-08-17T08:19:40.516Z,28.07
2022-08-17T08:20:51.908Z,27.96
2022-08-17T08:21:40.423Z,28.01
2022-08-17T08:22:40.385Z,27.89
2022-08-17T08:23:40.338Z,27.80
2022-08-17T08:24:40.314Z,27.71
2022-08-17T08:25:40.248Z,27.64
2022-08-17T08:26:40.221Z,27.49
2022-08-17T08:27:40.164Z,27.49
2022-08-17T08:28:40.131Z,27.51
2022-08-17T08:29:40.072Z,27.42
2022-08-17T08:30:40.046Z,27.36
2022-08-17T08:31:42.383Z,27.36
2022-08-17T08:32:39.961Z,27.32
2022-08-17T08:33:39.897Z,27.32
2022-08-17T08:34:47.415Z,27.37
2022-08-17T08:35:39.811Z,27.42
2022-08-17T08:37:14.238Z,27.47
2022-08-17T08:37:42.882Z,27.54
2022-08-17T08:38:39.680Z,27.58
2022-08-17T08:39:39.711Z,27.49
2022-08-17T08:40:39.592Z,27.45
2022-08-17T08:41:39.564Z,27.59
2022-08-17T08:42:39.526Z,27.68
2022-08-17T08:43:39.458Z,27.82
2022-08-17T08:45:00.663Z,27.92
2022-08-17T08:45:39.371Z,27.90
2022-08-17T08:46:39.328Z,27.92
2022-08-17T08:47:39.301Z,27.90
2022-08-17T08:48:57.061Z,27.93
2022-08-17T08:50:02.512Z,27.98
2022-08-17T08:50:39.186Z,28.20
2022-08-17T08:51:39.109Z,28.27
2022-08-17T08:52:39.082Z,28.42
2022-08-17T08:53:39.035Z,28.57
2022-08-17T08:54:38.979Z,28.59
2022-08-17T08:55:38.936Z,28.51
2022-08-17T08:56:38.893Z,28.51
2022-08-17T08:57:38.854Z,28.45
2022-08-17T08:58:41.270Z,28.41
2022-08-17T08:59:41.962Z,28.33
2022-08-17T09:00:38.717Z,28.22
2022-08-17T09:01:38.716Z,28.00
2022-08-17T09:02:38.628Z,27.93
2022-08-17T09:03:52.161Z,27.75
2022-08-17T09:05:12.412Z,27.74
2022-08-17T09:05:38.500Z,27.68
2022-08-17T09:06:39.788Z,27.78
2022-08-17T09:07:38.413Z,27.77
2022-08-17T09:08:38.393Z,27.83
2022-08-17T09:09:38.329Z,27.93
2022-08-17T09:10:38.288Z,27.95
2022-08-17T09:12:02.378Z,28.10
2022-08-17T09:12:38.197Z,28.25
2022-08-17T09:13:38.169Z,28.29
2022-08-17T09:14:43.114Z,28.15
2022-08-17T09:15:38.085Z,28.30
2022-08-17T09:16:38.025Z,28.47
2022-08-17T09:17:37.979Z,28.64
2022-08-17T09:19:02.159Z,28.56
2022-08-17T09:19:37.906Z,28.41
2022-08-17T09:20:37.850Z,28.48
2022-08-17T09:21:37.809Z,28.96
2022-08-17T09:22:37.765Z,29.34
2022-08-17T09:23:37.722Z,29.49
2022-08-17T09:24:37.690Z,29.73
2022-08-17T09:25:37.639Z,29.87
2022-08-17T09:26:37.606Z,29.98
2022-08-17T09:27:37.554Z,30.05
2022-08-17T09:28:37.508Z,30.15
2022-08-17T09:29:37.476Z,29.94
2022-08-17T09:30:37.423Z,30.00
2022-08-17T09:31:47.049Z,29.94
2022-08-17T09:32:37.355Z,30.25
2022-08-17T09:33:37.294Z,30.44
2022-08-17T09:34:37.255Z,30.48
2022-08-17T09:35:37.590Z,30.44
2022-08-17T09:36:37.190Z,30.12
2022-08-17T09:37:37.126Z,30.00
2022-08-17T09:38:37.081Z,29.86
2022-08-17T09:39:37.075Z,29.88
2022-08-17T09:40:37.000Z,29.90
2022-08-17T09:41:36.958Z,29.97
2022-08-17T09:42:36.915Z,30.10
2022-08-17T09:43:36.873Z,30.06
2022-08-17T09:44:36.846Z,29.98
2022-08-17T09:45:36.806Z,29.91
2022-08-17T09:46:38.799Z,29.86
2022-08-17T09:47:36.719Z,29.93
2022-08-17T09:48:36.665Z,29.93
2022-08-17T09:49:36.627Z,29.61
2022-08-17T09:50:55.466Z,29.38
2022-08-17T09:51:36.554Z,29.51
2022-08-17T09:52:36.496Z,29.38
2022-08-17T09:53:36.456Z,29.29
2022-08-17T09:54:40.287Z,29.34
2022-08-17T09:55:36.369Z,29.31
2022-08-17T09:56:36.345Z,29.34
2022-08-17T09:57:36.285Z,29.49
2022-08-17T09:58:36.245Z,29.50
2022-08-17T09:59:38.525Z,29.66
2022-08-17T10:00:36.171Z,29.79
2022-08-17T10:01:36.148Z,29.87
2022-08-17T10:02:36.078Z,29.75
2022-08-17T10:03:36.035Z,29.69
2022-08-17T10:04:35.990Z,29.66
2022-08-17T10:05:35.949Z,29.60
2022-08-17T10:06:35.923Z,29.45
2022-08-17T10:07:35.889Z,29.32
2022-08-17T10:08:35.822Z,29.16
2022-08-17T10:09:35.783Z,29.24
2022-08-17T10:10:35.739Z,29.31
2022-08-17T10:11:35.712Z,29.39
2022-08-17T10:12:35.653Z,29.24
2022-08-17T10:13:35.615Z,29.19
2022-08-17T10:14:36.472Z,29.20
2022-08-17T10:15:35.526Z,29.14
2022-08-17T10:16:35.484Z,29.14
2022-08-17T10:17:35.502Z,29.13
2022-08-17T10:18:35.399Z,29.07
2022-08-17T10:19:35.357Z,28.98
2022-08-17T10:20:35.314Z,28.78
2022-08-17T10:21:35.272Z,28.74
2022-08-17T10:22:37.947Z,28.75
2022-08-17T10:23:35.188Z,28.76
2022-08-17T10:24:35.163Z,28.75
2022-08-17T10:25:49.104Z,28.70
2022-08-17T10:26:35.077Z,28.81
2022-08-17T10:27:35.037Z,28.84
2022-08-17T10:28:34.976Z,28.74
2022-08-17T10:29:47.494Z,28.75
2022-08-17T10:30:34.887Z,28.81
2022-08-17T10:31:35.907Z,28.69
2022-08-17T10:32:34.817Z,28.66
2022-08-17T10:33:34.760Z,28.75
2022-08-17T10:34:41.277Z,28.78
2022-08-17T10:35:34.691Z,28.72
2022-08-17T10:36:34.633Z,28.76
2022-08-17T10:37:34.603Z,28.72
2022-08-17T10:38:34.547Z,28.74
2022-08-17T10:39:34.601Z,28.76
2022-08-17T10:40:34.460Z,28.70
2022-08-17T10:41:38.250Z,28.74
2022-08-17T10:42:34.392Z,28.66
2022-08-17T10:43:34.335Z,28.51
2022-08-17T10:44:38.974Z,28.45
2022-08-17T10:45:34.247Z,28.48
2022-08-17T10:46:34.205Z,28.59
2022-08-17T10:47:52.729Z,28.72
2022-08-17T10:48:34.138Z,28.76
2022-08-17T10:49:34.078Z,28.85
2022-08-17T10:50:34.051Z,28.93
2022-08-17T10:51:33.993Z,29.12
2022-08-17T10:52:33.953Z,29.08
2022-08-17T10:53:33.906Z,29.22
2022-08-17T10:54:33.864Z,29.17
2022-08-17T10:55:44.471Z,29.32
2022-08-17T10:56:33.779Z,29.42
2022-08-17T10:57:33.743Z,29.44
2022-08-17T10:58:33.711Z,29.17
2022-08-17T10:59:33.695Z,29.16
2022-08-17T11:00:33.693Z,29.01
2022-08-17T11:01:33.615Z,28.97
2022-08-17T11:02:33.523Z,29.04
2022-08-17T11:03:33.477Z,28.97
2022-08-17T11:04:33.452Z,29.12
2022-08-17T11:05:33.410Z,29.12
2022-08-17T11:06:33.352Z,29.16
2022-08-17T11:07:33.307Z,29.19
2022-08-17T11:08:33.264Z,29.07
2022-08-17T11:09:33.238Z,28.96
2022-08-17T11:10:33.191Z,28.98
2022-08-17T11:11:33.137Z,28.84
2022-08-17T11:12:33.093Z,28.86
2022-08-17T11:13:33.069Z,28.76
2022-08-17T11:14:33.007Z,28.74
2022-08-17T11:15:32.983Z,28.76
2022-08-17T11:16:32.928Z,28.81
2022-08-17T11:17:32.879Z,28.89
2022-08-17T11:18:32.839Z,28.93
2022-08-17T11:19:32.796Z,28.89
2022-08-17T11:20:32.769Z,28.94
2022-08-17T11:21:32.713Z,28.88
2022-08-17T11:22:33.684Z,28.74
2022-08-17T11:23:32.627Z,28.60
2022-08-17T11:24:32.584Z,28.56
2022-08-17T11:25:32.539Z,28.39
2022-08-17T11:26:32.510Z,28.48
2022-08-17T11:27:32.468Z,28.32
2022-08-17T11:28:32.411Z,28.35
2022-08-17T11:29:32.368Z,28.30
2022-08-17T11:30:32.326Z,28.27
2022-08-17T11:31:38.373Z,28.30
2022-08-17T11:32:32.239Z,28.32
2022-08-17T11:33:32.198Z,28.41
2022-08-17T11:34:32.156Z,28.49
2022-08-17T11:35:32.117Z,28.47
2022-08-17T11:36:32.081Z,28.44
2022-08-17T11:37:32.031Z,28.45
2022-08-17T11:38:31.980Z,28.48
2022-08-17T11:39:31.978Z,28.45
2022-08-17T11:40:31.910Z,28.44
2022-08-17T11:41:31.852Z,28.45
2022-08-17T11:42:31.806Z,28.42
2022-08-17T11:43:31.766Z,28.45
2022-08-17T11:44:31.726Z,28.48
2022-08-17T11:45:33.041Z,28.45
2022-08-17T11:46:31.661Z,28.35
2022-08-17T11:47:31.635Z,28.27
2022-08-17T11:48:31.978Z,28.26
2022-08-17T11:49:31.509Z,28.15
2022-08-17T11:50:31.462Z,28.20
2022-08-17T11:51:31.422Z,28.11
2022-08-17T11:52:31.392Z,28.10
2022-08-17T11:53:31.358Z,28.04
2022-08-17T11:54:33.360Z,28.10
2022-08-17T11:55:35.835Z,28.04
2022-08-17T11:56:31.206Z,28.01
2022-08-17T11:57:31.179Z,27.95
2022-08-17T11:58:31.121Z,28.00
2022-08-17T11:59:31.080Z,27.98
2022-08-17T12:00:31.031Z,27.95
2022-08-17T12:01:31.152Z,27.89
2022-08-17T12:02:31.602Z,27.86
2022-08-17T12:03:30.955Z,27.87
2022-08-17T12:04:30.879Z,27.82
2022-08-17T12:05:30.837Z,27.77
2022-08-17T12:06:31.158Z,27.77
2022-08-17T12:07:30.731Z,27.86
2022-08-17T12:08:30.701Z,27.78
2022-08-17T12:09:30.643Z,27.55
2022-08-17T12:10:30.601Z,27.48
2022-08-17T12:12:11.276Z,27.48
2022-08-17T12:12:30.513Z,27.39
2022-08-17T12:13:38.669Z,27.32
2022-08-17T12:15:05.981Z,27.35
2022-08-17T12:15:30.381Z,27.25
2022-08-17T12:16:30.342Z,27.30
2022-08-17T12:17:41.499Z,27.22
2022-08-17T12:18:30.265Z,27.12
2022-08-17T12:19:30.222Z,27.14
2022-08-17T12:20:30.210Z,27.12
2022-08-17T12:21:30.127Z,27.11
2022-08-17T12:22:30.075Z,27.03
2022-08-17T12:23:30.051Z,26.89
2022-08-17T12:24:29.992Z,26.99
2022-08-17T12:25:29.989Z,26.88
2022-08-17T12:26:29.917Z,26.90
2022-08-17T12:27:48.961Z,26.75
2022-08-17T12:28:29.814Z,26.75
2022-08-17T12:29:35.129Z,26.84
2022-08-17T12:30:29.725Z,26.74
2022-08-17T12:31:29.683Z,26.68
2022-08-17T12:32:29.653Z,26.68
2022-08-17T12:33:29.591Z,26.73
2022-08-17T12:34:29.558Z,26.71
2022-08-17T12:35:29.507Z,26.73
2022-08-17T12:36:29.477Z,26.66
2022-08-17T12:37:29.419Z,26.56
2022-08-17T12:38:32.616Z,26.47
2022-08-17T12:39:29.391Z,26.43
2022-08-17T12:40:29.289Z,26.38
2022-08-17T12:41:29.259Z,26.43
2022-08-17T12:42:29.199Z,26.33
2022-08-17T12:43:29.160Z,26.22
2022-08-17T12:44:29.115Z,25.93
2022-08-17T12:45:29.084Z,25.91
2022-08-17T12:46:29.024Z,25.81
2022-08-17T12:47:29.409Z,25.62
2022-08-17T12:48:28.956Z,25.51
2022-08-17T12:49:28.912Z,25.35
2022-08-17T12:50:30.258Z,25.21
2022-08-17T12:51:28.814Z,25.13
2022-08-17T12:52:28.757Z,25.14